Time;durP1;ratioP1;P1;durP2;ratioP2;P2;SDS_P1;SDS_P2;PMS_P1;PMS_P2;Temp;Humidity;BMP_temperature;BMP_pressure;BME280_temperature;BME280_humidity;BME280_pressure;Samples;Min_cycle;Max_cycle;Signal;HPM_P1;HPM_P2
2021/04/08 00:00:53;;;;;;;;;17.50;17.20;;;;;7.39;63.29;99856.81;487883;112;380732;-72
2021/04/08 00:01:57;;;;;;;;;21.30;19.00;;;;;7.43;63.12;99863.54;488125;112;383843;-72
2021/04/08 00:03:01;;;;;;;;;16.10;13.40;;;;;7.44;62.99;99870.53;487475;112;378638;-71
2021/04/08 00:04:05;;;;;;;;;10.10;8.20;;;;;7.47;62.88;99884.51;488307;112;375275;-71
2021/04/08 00:05:11;;;;;;;;;14.20;12.20;;;;;7.46;62.55;99888.95;488267;112;380855;-72
2021/04/08 00:06:15;;;;;;;;;9.90;7.30;;;;;7.46;62.55;99888.95;479128;113;375160;-71
2021/04/08 00:07:20;;;;;;;;;17.90;15.50;;;;;7.52;62.57;99890.29;481644;113;380785;-71
2021/04/08 00:08:23;;;;;;;;;15.40;13.80;;;;;7.51;62.08;99891.23;487924;112;378866;-72
2021/04/08 00:09:27;;;;;;;;;22.00;16.10;;;;;7.51;62.08;99891.23;488213;112;385280;-72
2021/04/08 00:10:32;;;;;;;;;18.60;16.30;;;;;7.53;61.77;99895.45;487764;112;381512;-72
2021/04/08 00:11:36;;;;;;;;;16.40;16.40;;;;;7.51;61.57;99902.67;488136;112;380424;-72
2021/04/08 00:12:40;;;;;;;;;16.00;14.40;;;;;7.44;61.94;99904.92;488118;112;384072;-74
2021/04/08 00:13:44;;;;;;;;;16.70;15.00;;;;;7.44;61.94;99904.92;488100;112;387347;-72
2021/04/08 00:14:48;;;;;;;;;16.60;15.60;;;;;7.50;61.91;99905.45;488182;112;378789;-72
2021/04/08 00:15:52;;;;;;;;;8.70;8.70;;;;;7.48;60.77;99913.48;488346;112;374445;-71
2021/04/08 00:16:56;;;;;;;;;14.20;13.40;;;;;7.48;60.77;99913.48;488189;112;384663;-71
2021/04/08 00:18:00;;;;;;;;;16.30;13.90;;;;;7.47;60.48;99922.37;488206;112;378697;-73
2021/04/08 00:19:05;;;;;;;;;13.20;12.80;;;;;7.49;60.65;99927.56;488274;112;378795;-72
2021/04/08 00:20:13;;;;;;;;;14.90;12.40;;;;;7.49;60.65;99927.56;487735;112;378007;-73
2021/04/08 00:21:17;;;;;;;;;11.20;9.70;;;;;7.48;60.69;99944.38;487647;112;377566;-72
2021/04/08 00:22:21;;;;;;;;;14.10;12.50;;;;;7.48;60.69;99944.38;488245;112;378338;-73
2021/04/08 00:23:25;;;;;;;;;14.00;12.40;;;;;7.45;60.38;99959.54;488251;112;378259;-72
2021/04/08 00:24:28;;;;;;;;;12.90;11.40;;;;;7.45;60.38;99959.54;488261;112;376294;-72
2021/04/08 00:25:33;;;;;;;;;11.40;10.70;;;;;7.39;60.02;99973.22;488272;112;377669;-73
2021/04/08 00:26:38;;;;;;;;;11.80;8.60;;;;;7.39;60.06;99967.92;487777;112;375739;-73
2021/04/08 00:27:42;;;;;;;;;14.70;12.70;;;;;7.39;60.06;99967.92;488260;112;378608;-72
2021/04/08 00:28:46;;;;;;;;;16.50;12.90;;;;;7.40;59.84;99968.77;487950;112;379737;-72
2021/04/08 00:29:50;;;;;;;;;21.50;20.50;;;;;7.18;60.05;99973.92;488073;112;383176;-72
2021/04/08 00:30:54;;;;;;;;;20.50;19.30;;;;;7.04;60.82;99993.40;488107;112;382281;-73
2021/04/08 00:31:58;;;;;;;;;17.20;15.40;;;;;6.99;60.91;99974.35;488150;112;382328;-72
2021/04/08 00:33:02;;;;;;;;;18.50;17.90;;;;;6.99;60.91;99974.35;488086;112;383740;-72
2021/04/08 00:34:06;;;;;;;;;21.60;18.70;;;;;6.93;61.01;99966.86;488027;112;382112;-72
2021/04/08 00:35:11;;;;;;;;;24.40;19.00;;;;;7.01;60.47;99956.59;488028;112;390994;-72
2021/04/08 00:36:16;;;;;;;;;24.30;19.40;;;;;7.01;60.47;99956.59;487432;112;390542;-72
2021/04/08 00:37:20;;;;;;;;;17.40;15.90;;;;;7.03;60.59;99959.97;488220;112;381573;-72
2021/04/08 00:38:24;;;;;;;;;20.00;18.40;;;;;7.08;59.79;99955.22;488076;112;384361;-72
2021/04/08 00:39:28;;;;;;;;;7.82;7.82;;;;;7.08;59.79;99955.22;488281;112;379208;-72
2021/04/08 00:40:34;;;;;;;;;16.10;14.10;;;;;6.77;60.74;99964.45;487561;112;381293;-73
2021/04/08 00:41:38;;;;;;;;;16.40;16.30;;;;;6.74;61.10;99961.17;488081;112;387991;-72
2021/04/08 00:42:42;;;;;;;;;16.30;15.60;;;;;6.76;61.28;99964.57;488160;112;379835;-72
2021/04/08 00:43:46;;;;;;;;;15.90;13.90;;;;;6.84;60.93;99970.15;487840;112;386788;-71
2021/04/08 00:44:50;;;;;;;;;16.10;14.90;;;;;6.88;60.67;99953.13;488116;112;381544;-71
2021/04/08 00:45:54;;;;;;;;;16.90;14.50;;;;;6.88;60.67;99953.13;488183;112;380700;-73
2021/04/08 00:46:58;;;;;;;;;17.40;15.10;;;;;6.91;60.43;99955.55;488164;112;381288;-72
2021/04/08 00:48:02;;;;;;;;;13.50;11.80;;;;;6.93;59.55;99948.35;488266;112;378858;-71
2021/04/08 00:49:06;;;;;;;;;15.30;14.80;;;;;6.92;59.74;99947.50;487932;112;378902;-73
2021/04/08 00:50:13;;;;;;;;;19.00;15.70;;;;;6.92;59.74;99947.50;487400;112;381413;-71
2021/04/08 00:51:17;;;;;;;;;14.90;11.70;;;;;6.84;59.89;99965.72;487629;112;377950;-71
2021/04/08 00:52:21;;;;;;;;;8.10;6.70;;;;;6.84;59.89;99965.72;488375;112;374013;-71
2021/04/08 00:53:27;;;;;;;;;12.40;12.40;;;;;6.80;60.14;99969.52;488214;112;378352;-73
2021/04/08 00:54:31;;;;;;;;;15.00;13.40;;;;;6.82;60.23;99967.63;487664;111;381643;-73
2021/04/08 00:55:36;;;;;;;;;15.20;11.90;;;;;6.85;60.08;99959.48;488192;112;386451;-72
2021/04/08 00:56:42;;;;;;;;;13.00;12.50;;;;;6.20;60.06;99841.70;487403;112;385009;-72
2021/04/08 00:57:46;;;;;;;;;13.30;11.00;;;;;6.98;59.31;99954.17;488243;112;379126;-73
2021/04/08 00:58:50;;;;;;;;;12.60;11.80;;;;;6.99;59.48;99961.13;488007;112;377575;-74
2021/04/08 00:59:57;;;;;;;;;13.90;12.70;;;;;6.99;59.48;99961.13;487687;111;378441;-72
2021/04/08 01:01:01;;;;;;;;;17.40;13.30;;;;;6.96;59.81;99957.86;487971;112;380631;-72
2021/04/08 01:02:07;;;;;;;;;13.90;13.50;;;;;7.03;59.67;99974.98;487894;112;378250;-71
2021/04/08 01:03:11;;;;;;;;;14.30;12.10;;;;;7.01;59.85;99968.97;487734;112;378976;-72
2021/04/08 01:04:15;;;;;;;;;16.30;15.50;;;;;7.01;59.85;99968.97;488160;112;381041;-72
2021/04/08 01:05:19;;;;;;;;;15.20;13.30;;;;;6.99;59.48;99977.00;488226;112;380334;-71
2021/04/08 01:06:25;;;;;;;;;14.90;13.60;;;;;6.99;59.77;99974.35;487676;112;379482;-72
2021/04/08 01:07:29;;;;;;;;;14.50;13.60;;;;;6.99;59.77;99974.35;488211;112;379579;-74
2021/04/08 01:08:32;;;;;;;;;15.60;13.80;;;;;6.95;59.62;99978.19;488242;112;379753;-72
2021/04/08 01:09:36;;;;;;;;;13.80;12.70;;;;;6.81;60.19;99981.79;488176;112;378200;-72
2021/04/08 01:10:43;;;;;;;;;14.50;13.90;;;;;6.85;60.11;99977.14;487995;112;378995;-72
2021/04/08 01:11:47;;;;;;;;;13.40;12.40;;;;;6.85;60.11;99977.14;487780;112;378611;-75
2021/04/08 01:12:52;;;;;;;;;10.80;10.80;;;;;6.71;60.83;99982.53;488340;112;376553;-73
2021/04/08 01:13:56;;;;;;;;;17.40;15.70;;;;;6.78;60.49;99983.80;488500;112;380775;-73
2021/04/08 01:15:00;;;;;;;;;16.20;14.20;;;;;6.82;60.84;99983.48;488895;112;380270;-75
2021/04/08 01:16:06;;;;;;;;;17.70;14.50;;;;;6.89;60.56;99991.84;488893;112;381586;-73
2021/04/08 01:17:13;;;;;;;;;18.40;16.60;;;;;6.92;60.30;100000.37;488296;112;382175;-73
2021/04/08 01:18:32;;;;;;;;;18.40;16.70;;;;;6.95;60.53;99998.48;487707;112;382490;-72
2021/04/08 01:20:31;;;;;;;;;16.20;15.40;;;;;6.97;60.36;99999.22;487691;112;382843;-72
2021/04/08 01:21:38;;;;;;;;;18.40;16.90;;;;;6.97;60.36;99999.22;471842;115;382545;-71
2021/04/08 01:22:52;;;;;;;;;15.20;14.60;;;;;6.93;60.71;100032.95;471997;115;380294;-71
2021/04/08 01:24:44;;;;;;;;;19.60;17.20;;;;;6.91;60.45;100029.58;471790;115;381838;-72
2021/04/08 01:26:16;;;;;;;;;14.70;13.90;;;;;6.67;61.41;100015.42;471959;115;380281;-72
2021/04/08 01:27:27;;;;;;;;;17.20;16.30;;;;;6.71;61.45;99996.59;485634;112;380876;-75
2021/04/08 01:28:33;;;;;;;;;16.00;14.90;;;;;6.75;61.84;99997.23;487738;112;381130;-73
2021/04/08 01:29:48;;;;;;;;;18.80;17.90;;;;;6.75;61.84;99997.23;487557;112;383894;-73
2021/04/08 01:30:53;;;;;;;;;15.20;14.90;;;;;6.60;61.91;100004.42;487633;112;380270;-73
2021/04/08 01:31:57;;;;;;;;;19.20;17.20;;;;;6.66;61.97;100005.80;487868;112;382946;-72
2021/04/08 01:33:01;;;;;;;;;17.60;16.60;;;;;6.66;61.97;100005.80;488162;112;381970;-72
2021/04/08 01:34:07;;;;;;;;;16.50;15.80;;;;;6.65;62.12;99991.73;488199;112;380132;-71
2021/04/08 01:35:12;;;;;;;;;18.80;16.20;;;;;6.65;62.12;99991.73;487509;112;390892;-74
2021/04/08 01:36:19;;;;;;;;;18.00;15.00;;;;;6.68;62.07;99993.31;487578;112;388736;-75
2021/04/08 01:37:27;;;;;;;;;16.50;16.10;;;;;6.65;62.00;100004.09;487669;112;381782;-75
2021/04/08 01:38:32;;;;;;;;;11.80;10.50;;;;;6.68;62.01;100011.81;487815;112;377749;-76
2021/04/08 01:39:37;;;;;;;;;16.20;13.60;;;;;6.69;62.23;100016.16;478691;113;379930;-75
2021/04/08 01:40:42;;;;;;;;;16.60;15.60;;;;;6.76;61.92;100015.64;481683;111;382421;-73
2021/04/08 01:41:47;;;;;;;;;14.60;14.10;;;;;6.84;61.69;100023.02;487989;112;378356;-72
2021/04/08 01:42:53;;;;;;;;;16.70;13.40;;;;;6.90;61.39;100041.94;487937;112;377892;-71
2021/04/08 01:43:58;;;;;;;;;17.00;15.50;;;;;6.94;61.40;100050.52;487831;112;381709;-72
2021/04/08 01:45:02;;;;;;;;;14.50;12.40;;;;;6.94;61.40;100050.52;487958;112;378274;-72
2021/04/08 01:46:06;;;;;;;;;11.40;10.80;;;;;6.83;61.84;100053.03;488010;112;377978;-72
2021/04/08 01:47:10;;;;;;;;;13.60;10.20;;;;;6.83;61.84;100053.03;487251;112;377109;-72
2021/04/08 01:48:14;;;;;;;;;12.30;11.40;;;;;6.77;61.61;100048.17;488901;111;377684;-73
2021/04/08 01:49:19;;;;;;;;;16.10;12.70;;;;;6.72;62.23;100055.58;487093;112;378454;-72
2021/04/08 01:50:24;;;;;;;;;12.80;11.40;;;;;6.78;61.86;100061.30;488694;111;380197;-73
2021/04/08 01:51:28;;;;;;;;;15.60;11.60;;;;;6.86;61.84;100047.56;487101;112;379826;-74
2021/04/08 01:52:32;;;;;;;;;11.70;11.40;;;;;6.86;61.84;100047.56;489261;111;376914;-73
2021/04/08 01:53:40;;;;;;;;;13.70;11.80;;;;;6.89;61.54;100060.57;487145;112;378260;-70
2021/04/08 01:54:45;;;;;;;;;13.60;10.70;;;;;6.85;61.44;100056.44;488700;111;377570;-70
2021/04/08 01:55:51;;;;;;;;;14.20;13.70;;;;;6.89;61.21;100052.64;486593;112;378516;-72
2021/04/08 01:56:57;;;;;;;;;13.20;10.90;;;;;6.93;60.94;100057.59;488571;111;384590;-71
2021/04/08 01:58:02;;;;;;;;;16.90;14.40;;;;;6.98;61.35;100064.37;486214;112;378943;-72
2021/04/08 01:59:06;;;;;;;;;16.40;14.10;;;;;6.98;60.84;100062.58;488917;111;381403;-71
2021/04/08 02:00:12;;;;;;;;;12.80;11.10;;;;;6.98;60.84;100062.58;486875;112;377847;-72
2021/04/08 02:01:17;;;;;;;;;14.20;13.00;;;;;6.92;60.80;100057.72;488615;111;380167;-71
2021/04/08 02:02:21;;;;;;;;;13.60;13.30;;;;;6.84;61.24;100057.37;486632;112;381301;-72
2021/04/08 02:03:25;;;;;;;;;15.60;13.20;;;;;6.84;61.24;100057.37;489171;111;379309;-72
2021/04/08 02:04:29;;;;;;;;;14.00;13.10;;;;;6.85;61.22;100069.66;486974;112;377638;-72
2021/04/08 02:05:34;;;;;;;;;8.00;7.10;;;;;6.71;61.44;100080.30;487185;112;375449;-70
2021/04/08 02:06:40;;;;;;;;;16.50;14.00;;;;;6.71;61.44;100080.30;488472;111;380056;-72
2021/04/08 02:07:44;;;;;;;;;13.50;11.20;;;;;6.54;61.76;100065.59;486882;112;377227;-74
2021/04/08 02:08:49;;;;;;;;;14.10;12.70;;;;;6.54;61.76;100065.59;488468;111;378155;-72
2021/04/08 02:09:53;;;;;;;;;13.00;11.80;;;;;6.68;61.68;100086.66;486808;112;378086;-70
2021/04/08 02:10:57;;;;;;;;;11.70;11.20;;;;;6.71;61.54;100086.45;488882;111;386063;-72
2021/04/08 02:12:01;;;;;;;;;12.90;12.90;;;;;6.77;61.32;100095.75;487194;112;377162;-71
2021/04/08 02:13:06;;;;;;;;;13.10;12.70;;;;;6.79;61.43;100093.86;488923;111;378978;-72
2021/04/08 02:14:10;;;;;;;;;12.30;11.70;;;;;6.79;61.43;100093.86;487090;112;385270;-74
2021/04/08 02:15:15;;;;;;;;;12.80;11.10;;;;;6.81;60.99;100087.52;488917;111;378569;-74
2021/04/08 02:16:20;;;;;;;;;13.90;12.60;;;;;6.82;60.83;100089.22;486556;112;378953;-72
2021/04/08 02:17:24;;;;;;;;;11.60;11.00;;;;;6.81;60.97;100086.66;489006;111;377537;-73
2021/04/08 02:18:28;;;;;;;;;14.50;13.30;;;;;6.81;60.97;100086.66;487071;112;386810;-74
2021/04/08 02:19:32;;;;;;;;;14.90;12.10;;;;;6.87;60.84;100094.17;489154;111;379483;-73
2021/04/08 02:20:36;;;;;;;;;11.20;9.10;;;;;6.87;60.84;100094.17;487013;112;375931;-72
2021/04/08 02:21:40;;;;;;;;;15.50;13.90;;;;;6.87;60.84;100102.95;488503;111;391354;-73
2021/04/08 02:22:45;;;;;;;;;14.60;12.90;;;;;6.85;61.19;100110.16;487142;112;379060;-74
2021/04/08 02:23:50;;;;;;;;;16.40;13.50;;;;;6.85;61.19;100110.16;488896;111;380365;-70
2021/04/08 02:24:54;;;;;;;;;18.40;14.70;;;;;6.84;61.12;100104.95;486628;112;381640;-70
2021/04/08 02:25:58;;;;;;;;;14.80;12.30;;;;;6.84;61.12;100104.95;489157;111;385125;-69
2021/04/08 02:27:03;;;;;;;;;12.70;10.70;;;;;6.82;61.26;100091.86;487208;112;376869;-71
2021/04/08 02:28:07;;;;;;;;;15.70;13.50;;;;;6.84;61.21;100083.81;488843;111;384779;-71
2021/04/08 02:29:11;;;;;;;;;6.80;6.80;;;;;6.80;61.17;100095.53;486980;112;380980;-72
2021/04/08 02:30:17;;;;;;;;;12.10;12.10;;;;;6.79;61.29;100117.66;488503;111;377973;-73
2021/04/08 02:31:21;;;;;;;;;13.40;11.70;;;;;6.79;61.29;100117.66;486650;112;376788;-72
2021/04/08 02:32:25;;;;;;;;;9.20;9.20;;;;;6.62;61.95;100118.78;489211;111;383165;-74
2021/04/08 02:33:30;;;;;;;;;13.40;12.10;;;;;6.62;61.95;100118.78;487180;112;379140;-71
2021/04/08 02:34:34;;;;;;;;;11.55;11.55;;;;;6.67;62.08;100121.95;486807;112;382753;-72
2021/04/08 02:35:38;;;;;;;;;14.90;14.60;;;;;6.62;62.04;100129.34;488919;111;379474;-73
2021/04/08 02:36:44;;;;;;;;;13.70;12.00;;;;;6.68;61.80;100133.37;486386;112;378430;-72
2021/04/08 02:37:49;;;;;;;;;14.70;11.40;;;;;6.66;61.90;100122.92;488969;111;377456;-72
2021/04/08 02:38:53;;;;;;;;;15.30;11.90;;;;;6.66;61.90;100122.92;486442;112;380000;-74
2021/04/08 02:39:57;;;;;;;;;10.80;10.60;;;;;6.55;62.01;100132.48;489295;111;377418;-72
2021/04/08 02:41:02;;;;;;;;;15.30;15.00;;;;;6.38;62.22;100129.16;487132;112;381231;-73
2021/04/08 02:42:07;;;;;;;;;13.50;12.90;;;;;6.44;62.50;100140.29;488754;111;378876;-73
2021/04/08 02:43:11;;;;;;;;;14.00;11.10;;;;;6.44;62.50;100140.29;486945;112;378849;-73
2021/04/08 02:44:15;;;;;;;;;16.60;13.30;;;;;6.61;62.10;100155.86;489132;111;380448;-72
2021/04/08 02:45:19;;;;;;;;;7.20;6.60;;;;;6.61;62.10;100155.86;486971;112;375296;-72
2021/04/08 02:46:23;;;;;;;;;17.40;13.40;;;;;6.54;62.27;100157.23;488849;111;380621;-72
2021/04/08 02:47:27;;;;;;;;;13.50;11.60;;;;;6.43;62.73;100167.64;486763;112;383687;-73
2021/04/08 02:48:32;;;;;;;;;16.00;11.90;;;;;6.47;62.54;100161.22;488297;112;379745;-71
2021/04/08 02:49:36;;;;;;;;;13.20;12.40;;;;;6.47;62.54;100161.22;487954;112;379038;-73
2021/04/08 02:50:42;;;;;;;;;12.60;12.60;;;;;6.47;63.11;100167.36;487267;112;377055;-72
2021/04/08 02:51:49;;;;;;;;;16.70;14.80;;;;;6.51;62.47;100165.36;487876;112;381300;-74
2021/04/08 02:52:56;;;;;;;;;13.90;13.70;;;;;6.51;62.47;100165.36;487801;112;378452;-71
2021/04/08 02:54:03;;;;;;;;;12.00;11.30;;;;;6.44;62.48;100172.84;487729;111;377391;-72
2021/04/08 02:55:13;;;;;;;;;8.20;8.00;;;;;6.44;62.48;100172.84;487714;112;382290;-76
2021/04/08 02:56:23;;;;;;;;;12.10;11.20;;;;;6.46;62.39;100178.86;487329;112;377073;-77
2021/04/08 02:57:30;;;;;;;;;12.64;12.64;;;;;6.50;62.78;100177.72;487692;112;389408;-77
2021/04/08 02:58:34;;;;;;;;;13.00;11.20;;;;;6.55;62.24;100177.41;487658;112;385532;-78
2021/04/08 02:59:42;;;;;;;;;13.30;10.40;;;;;6.61;62.05;100174.35;488253;112;379477;-78
2021/04/08 03:00:49;;;;;;;;;12.30;12.20;;;;;6.61;62.05;100174.35;487795;112;376362;-79
2021/04/08 03:01:55;;;;;;;;;7.50;7.50;;;;;6.49;62.06;100180.45;487722;112;383992;-80
2021/04/08 03:03:03;;;;;;;;;11.90;10.00;;;;;6.49;62.06;100180.45;487743;112;378276;-81
2021/04/08 03:04:07;;;;;;;;;13.80;13.20;;;;;6.48;62.13;100184.06;487671;112;388475;-79
2021/04/08 03:05:12;;;;;;;;;12.20;11.50;;;;;6.56;62.03;100198.45;488285;112;377237;-80
2021/04/08 03:06:18;;;;;;;;;14.40;11.80;;;;;6.53;62.40;100197.80;487799;112;384215;-79
2021/04/08 03:07:25;;;;;;;;;11.30;11.30;;;;;6.42;62.23;100195.84;488315;112;378025;-79
2021/04/08 03:08:29;;;;;;;;;13.00;11.40;;;;;6.39;62.43;100191.62;486883;112;378353;-79
2021/04/08 03:09:35;;;;;;;;;10.20;7.50;;;;;6.44;62.79;100198.41;488300;112;384994;-81
2021/04/08 03:10:41;;;;;;;;;10.30;10.20;;;;;6.43;62.64;100200.20;487726;112;377655;-80
2021/04/08 03:11:44;;;;;;;;;11.40;11.40;;;;;6.46;62.43;100207.92;488241;112;385178;-77
2021/04/08 03:12:49;;;;;;;;;12.30;11.80;;;;;6.46;62.42;100207.06;488275;112;376878;-81
2021/04/08 03:13:55;;;;;;;;;12.70;11.10;;;;;6.46;62.42;100207.06;488063;112;376979;-76
2021/04/08 03:14:59;;;;;;;;;11.70;10.40;;;;;6.44;62.30;100206.33;488003;112;385437;-75
2021/04/08 03:16:04;;;;;;;;;11.70;11.50;;;;;6.43;62.58;100197.55;488263;112;379308;-74
2021/04/08 03:17:08;;;;;;;;;12.60;10.50;;;;;6.43;62.58;100197.55;487742;112;377545;-76
2021/04/08 03:18:14;;;;;;;;;13.40;11.80;;;;;6.43;62.77;100204.62;488265;112;377989;-77
2021/04/08 03:19:23;;;;;;;;;13.80;12.10;;;;;6.43;62.77;100204.62;478800;113;379995;-71
2021/04/08 03:20:27;;;;;;;;;15.30;10.20;;;;;6.43;62.77;100209.91;482304;111;378605;-76
2021/04/08 03:21:31;;;;;;;;;15.20;15.10;;;;;6.43;62.77;100209.91;487963;112;378461;-75
2021/04/08 03:22:36;;;;;;;;;7.10;6.40;;;;;6.45;62.70;100215.93;488375;112;375137;-76
2021/04/08 03:23:40;;;;;;;;;14.00;11.70;;;;;6.44;62.31;100217.75;487964;112;377555;-75
2021/04/08 03:24:46;;;;;;;;;12.10;11.50;;;;;6.42;62.54;100224.91;488254;112;378100;-77
2021/04/08 03:25:50;;;;;;;;;15.50;13.60;;;;;6.42;62.70;100219.63;487701;112;381023;-76
2021/04/08 03:26:56;;;;;;;;;11.80;11.20;;;;;6.36;62.60;100220.02;487736;112;378348;-77
2021/04/08 03:28:00;;;;;;;;;13.10;11.70;;;;;6.31;62.86;100211.56;488011;112;377925;-76
2021/04/08 03:29:04;;;;;;;;;11.00;11.00;;;;;6.23;63.01;100214.67;488222;112;377423;-77
2021/04/08 03:30:11;;;;;;;;;11.09;10.91;;;;;6.27;62.75;100215.33;487953;112;383108;-76
2021/04/08 03:31:15;;;;;;;;;22.40;20.40;;;;;6.14;63.45;100217.91;487162;112;383493;-77
2021/04/08 03:32:19;;;;;;;;;15.40;14.10;;;;;6.16;63.85;100231.84;484089;112;380017;-77
2021/04/08 03:33:23;;;;;;;;;16.20;11.50;;;;;6.16;63.85;100231.84;484490;112;379741;-74
2021/04/08 03:34:27;;;;;;;;;8.10;7.30;;;;;6.12;63.58;100230.37;481728;112;374701;-74
2021/04/08 03:35:31;;;;;;;;;12.10;11.70;;;;;6.13;63.75;100221.48;479988;114;378655;-76
2021/04/08 03:36:35;;;;;;;;;18.10;13.30;;;;;6.16;64.00;100226.56;479735;114;377712;-75
2021/04/08 03:37:40;;;;;;;;;13.40;12.00;;;;;6.16;64.00;100226.56;479840;114;377343;-75
2021/04/08 03:38:44;;;;;;;;;13.70;12.10;;;;;6.20;63.87;100221.94;481444;112;377773;-76
2021/04/08 03:39:48;;;;;;;;;16.50;13.20;;;;;6.19;63.47;100226.38;482636;112;379283;-75
2021/04/08 03:40:52;;;;;;;;;14.50;12.60;;;;;6.25;63.77;100236.55;484661;112;378401;-73
2021/04/08 03:41:56;;;;;;;;;14.00;11.80;;;;;6.21;63.14;100239.49;486309;112;377512;-72
2021/04/08 03:43:00;;;;;;;;;12.90;11.20;;;;;6.21;63.14;100239.49;486345;112;378454;-71
2021/04/08 03:44:04;;;;;;;;;8.30;6.90;;;;;6.19;63.40;100242.22;486183;112;374317;-73
2021/04/08 03:45:10;;;;;;;;;15.50;14.90;;;;;6.27;63.60;100258.44;485577;112;380497;-73
2021/04/08 03:46:15;;;;;;;;;16.40;13.10;;;;;6.25;63.71;100256.84;485775;112;380444;-73
2021/04/08 03:47:19;;;;;;;;;13.50;12.40;;;;;6.27;63.16;100260.23;486311;112;377963;-73
2021/04/08 03:48:23;;;;;;;;;18.30;14.80;;;;;6.29;63.06;100264.46;486011;112;380533;-75
2021/04/08 03:49:27;;;;;;;;;13.80;13.80;;;;;6.27;62.98;100269.00;485713;112;378562;-73
2021/04/08 03:50:35;;;;;;;;;18.00;16.90;;;;;6.25;62.74;100264.77;485062;112;382452;-78
2021/04/08 03:51:39;;;;;;;;;21.20;18.00;;;;;6.25;62.74;100264.77;485065;112;382962;-77
2021/04/08 03:52:43;;;;;;;;;16.70;15.00;;;;;6.28;63.19;100260.15;485653;112;380620;-73
2021/04/08 03:53:47;;;;;;;;;15.20;14.40;;;;;6.06;64.06;100253.66;485436;112;379171;-73
2021/04/08 03:54:51;;;;;;;;;20.50;16.60;;;;;6.07;63.94;100253.55;485119;112;381629;-74
2021/04/08 03:55:55;;;;;;;;;21.20;17.30;;;;;6.05;64.22;100257.23;485604;112;381912;-72
2021/04/08 03:56:59;;;;;;;;;23.20;16.50;;;;;6.03;64.60;100267.06;484946;112;383551;-73
2021/04/08 03:58:04;;;;;;;;;20.60;16.80;;;;;6.10;64.34;100273.63;485593;112;381910;-72
2021/04/08 03:59:08;;;;;;;;;23.90;19.90;;;;;6.10;64.34;100273.63;485173;112;392565;-72
2021/04/08 04:00:14;;;;;;;;;19.00;15.70;;;;;6.14;64.07;100291.84;488198;110;380984;-74
2021/04/08 04:01:18;;;;;;;;;27.90;20.10;;;;;6.16;63.81;100289.94;487290;110;390303;-73
2021/04/08 04:02:22;;;;;;;;;20.80;18.50;;;;;6.20;63.58;100288.81;488315;110;384302;-73
2021/04/08 04:03:26;;;;;;;;;26.64;21.36;;;;;6.20;63.85;100294.09;485613;112;393792;-72
2021/04/08 04:04:30;;;;;;;;;14.00;8.80;;;;;6.11;64.15;100292.03;488963;110;375739;-72
2021/04/08 04:05:34;;;;;;;;;22.20;18.10;;;;;6.09;64.28;100288.64;491228;110;383467;-69
2021/04/08 04:06:41;;;;;;;;;21.50;17.40;;;;;6.05;64.30;100284.49;488431;110;381498;-68
2021/04/08 04:07:50;;;;;;;;;22.20;19.00;;;;;6.05;64.30;100284.49;487832;110;382989;-71
2021/04/08 04:08:54;;;;;;;;;27.60;24.80;;;;;6.00;64.64;100293.64;487735;110;384167;-69
2021/04/08 04:10:00;;;;;;;;;26.80;23.60;;;;;6.02;64.45;100297.88;488172;110;383294;-68
2021/04/08 04:11:04;;;;;;;;;24.90;21.40;;;;;6.02;64.76;100289.97;488851;110;383728;-71
2021/04/08 04:12:09;;;;;;;;;19.10;17.10;;;;;6.09;64.38;100304.48;487088;110;382855;-69
2021/04/08 04:13:14;;;;;;;;;28.90;22.90;;;;;6.09;64.38;100304.48;485271;112;383821;-67
2021/04/08 04:14:21;;;;;;;;;24.00;22.60;;;;;6.10;64.22;100295.60;487999;110;383396;-71
2021/04/08 04:15:25;;;;;;;;;23.70;21.10;;;;;6.10;64.15;100300.88;488712;110;383197;-67
2021/04/08 04:16:29;;;;;;;;;26.10;22.90;;;;;6.05;64.50;100302.13;494145;110;383904;-67
2021/04/08 04:17:33;;;;;;;;;18.90;16.40;;;;;6.09;64.24;100299.20;494189;110;386472;-70
2021/04/08 04:18:38;;;;;;;;;26.50;21.20;;;;;5.95;64.67;100299.19;493795;110;390209;-69
2021/04/08 04:19:41;;;;;;;;;25.60;22.70;;;;;5.95;64.67;100299.19;493856;110;384802;-69
2021/04/08 04:20:46;;;;;;;;;27.80;23.50;;;;;6.02;64.22;100300.52;493840;110;383322;-69
2021/04/08 04:21:50;;;;;;;;;24.90;20.80;;;;;6.08;64.48;100302.78;494084;110;384765;-69
2021/04/08 04:22:54;;;;;;;;;30.20;24.10;;;;;6.13;64.14;100294.55;494114;110;383742;-71
2021/04/08 04:23:58;;;;;;;;;24.40;22.90;;;;;6.13;64.14;100294.55;492949;110;383381;-70
2021/04/08 04:25:03;;;;;;;;;26.70;20.30;;;;;6.15;64.20;100293.55;491932;110;391324;-70
2021/04/08 04:26:07;;;;;;;;;28.60;24.90;;;;;6.18;63.86;100298.63;488205;110;383821;-69
2021/04/08 04:27:10;;;;;;;;;30.10;24.20;;;;;6.20;63.90;100294.09;485467;112;383725;-67
2021/04/08 04:28:14;;;;;;;;;29.10;25.10;;;;;6.20;63.90;100294.09;488460;110;385679;-69
2021/04/08 04:29:18;;;;;;;;;24.90;24.10;;;;;6.22;63.73;100307.22;485477;112;383483;-70
2021/04/08 04:30:25;;;;;;;;;31.30;28.50;;;;;6.22;64.02;100308.04;484913;112;385384;-68
2021/04/08 04:31:29;;;;;;;;;28.90;23.00;;;;;6.24;63.51;100318.52;489856;110;391166;-69
2021/04/08 04:32:32;;;;;;;;;28.30;23.60;;;;;6.21;63.93;100316.08;488887;110;384161;-70
2021/04/08 04:33:38;;;;;;;;;25.20;20.60;;;;;6.21;63.93;100316.08;485513;112;383120;-70
2021/04/08 04:34:42;;;;;;;;;26.90;22.30;;;;;6.24;64.21;100308.81;485631;110;384680;-67
2021/04/08 04:35:46;;;;;;;;;23.70;22.40;;;;;6.24;64.21;100308.81;487051;110;388642;-70
2021/04/08 04:36:50;;;;;;;;;23.20;21.00;;;;;6.29;63.77;100296.16;485554;112;389212;-72
2021/04/08 04:37:53;;;;;;;;;29.60;22.90;;;;;6.31;63.42;100309.28;485461;112;390886;-69
2021/04/08 04:38:57;;;;;;;;;25.50;22.90;;;;;6.27;63.52;100302.48;485544;112;383385;-69
2021/04/08 04:40:01;;;;;;;;;28.50;22.40;;;;;6.27;63.34;100310.41;485602;112;384781;-70
2021/04/08 04:41:05;;;;;;;;;22.90;21.00;;;;;6.27;63.34;100310.41;485510;112;382039;-69
2021/04/08 04:42:10;;;;;;;;;13.00;9.40;;;;;6.15;64.02;100312.03;488449;110;376043;-70
2021/04/08 04:43:14;;;;;;;;;26.20;21.60;;;;;6.14;64.54;100318.24;485193;112;382614;-69
2021/04/08 04:44:18;;;;;;;;;28.00;22.40;;;;;6.17;63.99;100318.05;488154;110;384410;-70
2021/04/08 04:45:22;;;;;;;;;27.00;22.00;;;;;6.22;63.71;100323.88;488257;110;384219;-70
2021/04/08 04:46:26;;;;;;;;;22.90;21.80;;;;;6.25;63.61;100328.16;485155;112;382048;-68
2021/04/08 04:47:30;;;;;;;;;23.40;19.00;;;;;6.28;63.76;100330.60;485695;112;382451;-69
2021/04/08 04:48:35;;;;;;;;;27.50;23.20;;;;;6.28;63.76;100330.60;485082;112;383318;-69
2021/04/08 04:49:39;;;;;;;;;27.00;23.10;;;;;6.35;62.91;100343.31;486986;110;383718;-70
2021/04/08 04:50:43;;;;;;;;;28.10;23.60;;;;;6.31;62.75;100336.55;484177;112;383005;-68
2021/04/08 04:51:47;;;;;;;;;21.50;18.70;;;;;6.29;63.24;100337.56;488806;110;383981;-70
2021/04/08 04:52:51;;;;;;;;;25.20;21.40;;;;;6.30;63.17;100348.05;488894;110;383536;-69
2021/04/08 04:53:54;;;;;;;;;30.90;21.50;;;;;6.29;63.18;100338.41;487225;110;384222;-70
2021/04/08 04:54:58;;;;;;;;;24.70;20.30;;;;;6.29;63.18;100338.41;486662;112;383012;-69
2021/04/08 04:56:02;;;;;;;;;24.10;21.70;;;;;6.28;63.68;100346.45;490403;110;383991;-68
2021/04/08 04:57:07;;;;;;;;;26.40;21.20;;;;;6.23;63.67;100345.86;488342;110;384373;-70
2021/04/08 04:58:11;;;;;;;;;30.70;23.60;;;;;6.25;63.60;100351.92;488060;110;384396;-68